createdAt,value
2018-07-19T00:01:37.121Z,99038.52
2018-07-19T00:04:05.618Z,99033.89
2018-07-19T00:06:34.101Z,99037.84
2018-07-19T00:09:02.498Z,99035.88
2018-07-19T00:11:31.184Z,99039.40
2018-07-19T00:13:59.822Z,99043.74
2018-07-19T00:16:28.340Z,99039.66
2018-07-19T00:18:56.987Z,99041.00
2018-07-19T00:21:25.527Z,99031.09
2018-07-19T00:23:54.414Z,99035.75
2018-07-19T00:26:23.105Z,99036.48
2018-07-19T00:28:52.040Z,99031.78
2018-07-19T00:31:20.831Z,99034.41
2018-07-19T00:33:49.519Z,99033.16
2018-07-19T00:36:18.248Z,99030.61
2018-07-19T00:38:46.825Z,99029.38
2018-07-19T00:41:15.134Z,99024.36
2018-07-19T00:43:43.447Z,99030.41
2018-07-19T00:46:11.775Z,99026.70
2018-07-19T00:48:40.107Z,99027.08
2018-07-19T00:51:08.488Z,99026.57
2018-07-19T00:53:36.799Z,99023.05
2018-07-19T00:56:05.285Z,99019.15
2018-07-19T00:58:33.621Z,99014.61
2018-07-19T01:01:02.074Z,99017.16
2018-07-19T01:03:30.402Z,99013.09
2018-07-19T01:05:58.851Z,99017.61
2018-07-19T01:08:27.283Z,99018.81
2018-07-19T01:10:55.684Z,99016.08
2018-07-19T01:13:24.033Z,99020.97
2018-07-19T01:15:52.430Z,99023.52
2018-07-19T01:18:20.752Z,99019.10
2018-07-19T01:20:49.139Z,99025.36
2018-07-19T01:23:17.467Z,99024.02
2018-07-19T01:25:45.814Z,99020.67
2018-07-19T01:28:14.199Z,99023.72
2018-07-19T01:30:42.756Z,99028.56
2018-07-19T01:33:11.103Z,99020.80
2018-07-19T01:35:39.443Z,99027.02
2018-07-19T01:38:07.729Z,99031.05
2018-07-19T01:40:36.083Z,99032.23
2018-07-19T01:43:04.387Z,99032.36
2018-07-19T01:45:32.761Z,99027.48
2018-07-19T01:48:01.284Z,99036.39
2018-07-19T01:50:29.618Z,99035.67
2018-07-19T01:52:57.936Z,99031.30
2018-07-19T01:55:26.289Z,99031.23
2018-07-19T01:57:54.627Z,99027.94
2018-07-19T02:00:22.925Z,99017.97
2018-07-19T02:02:51.334Z,99019.54
2018-07-19T02:05:19.677Z,99029.73
2018-07-19T02:07:47.978Z,99028.84
2018-07-19T02:10:16.301Z,99030.33
2018-07-19T02:12:44.614Z,99032.17
2018-07-19T02:15:13.063Z,99033.52
2018-07-19T02:17:41.367Z,99030.37
2018-07-19T02:20:09.717Z,99042.31
2018-07-19T02:22:38.106Z,99043.70
2018-07-19T02:25:06.558Z,99041.09
2018-07-19T02:27:34.882Z,99038.23
2018-07-19T02:30:03.271Z,99043.62
2018-07-19T02:32:31.596Z,99043.41
2018-07-19T02:34:59.918Z,99045.95
2018-07-19T02:37:28.239Z,99049.56
2018-07-19T02:39:56.538Z,99055.30
2018-07-19T02:42:24.875Z,99054.50
2018-07-19T02:44:53.216Z,99047.73
2018-07-19T02:47:21.585Z,99057.64
2018-07-19T02:49:49.957Z,99053.00
2018-07-19T02:52:18.294Z,99045.55
2018-07-19T02:54:46.639Z,99044.53
2018-07-19T02:57:14.985Z,99046.23
2018-07-19T02:59:43.328Z,99043.55
2018-07-19T03:02:11.990Z,99044.42
2018-07-19T03:04:40.320Z,99048.27
2018-07-19T03:07:08.666Z,99049.39
2018-07-19T03:09:37.025Z,99050.94
2018-07-19T03:12:05.408Z,99046.33
2018-07-19T03:14:33.711Z,99056.19
2018-07-19T03:17:02.153Z,99050.73
2018-07-19T03:19:30.720Z,99047.32
2018-07-19T03:21:59.481Z,99051.10
2018-07-19T03:24:27.894Z,99052.11
2018-07-19T03:26:56.262Z,99057.13
2018-07-19T03:29:24.659Z,99050.11
2018-07-19T03:31:53.170Z,99054.45
2018-07-19T03:34:21.483Z,99049.33
2018-07-19T03:36:49.816Z,99053.33
2018-07-19T03:39:18.150Z,99051.95
2018-07-19T03:41:46.510Z,99052.14
2018-07-19T03:44:14.802Z,99047.33
2018-07-19T03:46:43.184Z,99055.14
2018-07-19T03:49:11.471Z,99048.08
2018-07-19T03:51:39.893Z,99062.22
2018-07-19T03:54:08.323Z,99052.12
2018-07-19T03:56:36.741Z,99055.90
2018-07-19T03:59:05.177Z,99052.90
2018-07-19T04:01:33.550Z,99052.80
2018-07-19T04:04:01.899Z,99055.23
2018-07-19T04:06:30.231Z,99058.61
2018-07-19T04:08:58.603Z,99057.38
2018-07-19T04:11:26.978Z,99059.12
2018-07-19T04:13:55.338Z,99057.61
2018-07-19T04:16:23.752Z,99059.20
2018-07-19T04:18:52.329Z,99054.94
2018-07-19T04:21:20.689Z,99050.23
2018-07-19T04:23:49.003Z,99050.55
2018-07-19T04:26:17.435Z,99047.99
2018-07-19T04:28:45.839Z,99049.41
2018-07-19T04:31:14.158Z,99048.05
2018-07-19T04:33:42.461Z,99048.72
2018-07-19T04:36:10.814Z,99052.77
2018-07-19T04:38:39.285Z,99049.73
2018-07-19T04:41:07.588Z,99054.52
2018-07-19T04:43:35.990Z,99059.16
2018-07-19T04:46:04.296Z,99054.66
2018-07-19T04:48:32.722Z,99060.00
2018-07-19T04:51:01.308Z,99061.28
2018-07-19T04:53:29.641Z,99061.23
2018-07-19T04:55:57.953Z,99063.31
2018-07-19T04:58:26.276Z,99066.67
2018-07-19T05:00:54.591Z,99056.78
2018-07-19T05:03:23.899Z,99054.94
2018-07-19T05:05:52.211Z,99065.20
2018-07-19T05:08:20.708Z,99060.32
2018-07-19T05:10:49.198Z,99068.43
2018-07-19T05:13:17.711Z,99064.73
2018-07-19T05:15:46.117Z,99063.41
2018-07-19T05:18:14.475Z,99070.47
2018-07-19T05:20:42.927Z,99062.73
2018-07-19T05:23:11.327Z,99061.58
2018-07-19T05:25:39.658Z,99067.10
2018-07-19T05:28:08.552Z,99069.84
2018-07-19T05:30:37.259Z,99066.81
2018-07-19T05:33:05.922Z,99060.56
2018-07-19T05:35:34.536Z,99063.27
2018-07-19T05:38:03.239Z,99053.67
2018-07-19T05:40:31.953Z,99060.05
2018-07-19T05:43:00.691Z,99063.91
2018-07-19T05:45:29.274Z,99053.30
2018-07-19T05:47:58.051Z,99055.50
2018-07-19T05:50:26.749Z,99059.02
2018-07-19T05:52:55.343Z,99059.97
2018-07-19T05:55:23.953Z,99056.13
2018-07-19T05:57:53.342Z,99056.43
2018-07-19T06:00:22.009Z,99063.31
2018-07-19T06:02:50.804Z,99062.64
2018-07-19T06:05:19.250Z,99063.64
2018-07-19T06:07:48.070Z,99057.69
2018-07-19T06:10:17.447Z,99059.66
2018-07-19T06:12:45.959Z,99063.31
2018-07-19T06:15:14.337Z,99061.99
2018-07-19T06:17:42.746Z,99066.86
2018-07-19T06:20:11.069Z,99063.77
2018-07-19T06:22:39.409Z,99069.53
2018-07-19T06:25:08.667Z,99074.57
2018-07-19T06:27:37.012Z,99073.91
2018-07-19T06:30:06.573Z,99073.52
2018-07-19T06:32:34.864Z,99073.27
2018-07-19T06:35:03.313Z,99077.70
2018-07-19T06:37:33.667Z,99075.07
2018-07-19T06:40:02.027Z,99079.78
2018-07-19T06:42:30.319Z,99068.13
2018-07-19T06:44:58.667Z,99069.41
2018-07-19T06:47:27.041Z,99062.42
2018-07-19T06:49:55.493Z,99071.99
2018-07-19T06:52:29.461Z,99068.95
2018-07-19T06:54:58.551Z,99070.50
2018-07-19T06:57:27.693Z,99072.31
2018-07-19T06:59:56.606Z,99077.06
2018-07-19T07:02:25.014Z,99067.54
2018-07-19T07:04:57.489Z,99066.94
2018-07-19T07:07:26.836Z,99063.39
2018-07-19T07:09:57.756Z,99065.16
2018-07-19T07:12:26.051Z,99063.23
2018-07-19T07:14:54.680Z,99063.41
2018-07-19T07:17:23.038Z,99064.20
2018-07-19T07:19:52.487Z,99067.27
2018-07-19T07:22:20.756Z,99062.38
2018-07-19T07:24:49.069Z,99065.47
2018-07-19T07:27:17.384Z,99061.88
2018-07-19T07:29:45.815Z,99059.59
2018-07-19T07:32:14.194Z,99058.84
2018-07-19T07:34:42.638Z,99057.27
2018-07-19T07:37:11.012Z,99060.98
2018-07-19T07:39:39.539Z,99065.88
2018-07-19T07:42:07.930Z,99058.53
2018-07-19T07:44:36.354Z,99067.55
2018-07-19T07:47:04.648Z,99058.91
2018-07-19T07:49:33.006Z,99064.61
2018-07-19T07:52:01.339Z,99063.30
2018-07-19T07:54:29.680Z,99060.48
2018-07-19T07:56:57.999Z,99059.36
2018-07-19T07:59:27.099Z,99060.81
2018-07-19T08:01:55.479Z,99059.00
2018-07-19T08:04:23.889Z,99056.45
2018-07-19T08:06:54.122Z,99056.11
2018-07-19T08:09:22.580Z,99051.67
2018-07-19T08:11:50.906Z,99055.22
2018-07-19T08:14:19.287Z,99053.15
2018-07-19T08:16:47.771Z,99050.16
2018-07-19T08:19:16.178Z,99047.39
2018-07-19T08:21:44.537Z,99054.56
2018-07-19T08:24:12.987Z,99047.91
2018-07-19T08:26:41.655Z,99054.82
2018-07-19T08:29:10.082Z,99047.13
2018-07-19T08:31:38.315Z,99062.68
2018-07-19T08:34:07.046Z,99057.65
2018-07-19T08:36:41.730Z,99047.17
2018-07-19T08:39:13.804Z,99052.62
2018-07-19T08:44:21.339Z,99054.92
2018-07-19T08:46:49.671Z,99044.45
2018-07-19T08:49:18.006Z,99050.91
2018-07-19T08:51:46.408Z,99045.23
2018-07-19T08:54:14.742Z,99060.21
2018-07-19T08:56:43.100Z,99051.48
2018-07-19T08:59:11.454Z,99049.78
2018-07-19T09:01:40.149Z,99046.20
2018-07-19T09:04:08.439Z,99059.89
2018-07-19T09:06:36.779Z,99055.03
2018-07-19T09:09:07.666Z,99058.39
2018-07-19T09:11:36.050Z,99049.67
2018-07-19T09:14:04.736Z,99054.63
2018-07-19T09:16:33.407Z,99051.27
2018-07-19T09:19:02.072Z,99055.41
2018-07-19T09:21:30.513Z,99055.91
2018-07-19T09:23:58.850Z,99054.81
2018-07-19T09:26:27.254Z,99052.67
2018-07-19T09:28:55.699Z,99053.09
2018-07-19T09:31:24.914Z,99041.80
2018-07-19T09:33:53.307Z,99047.05
2018-07-19T09:36:21.842Z,99045.38
2018-07-19T09:38:50.340Z,99050.67
2018-07-19T09:41:18.910Z,99043.20
2018-07-19T09:43:47.298Z,99047.06
2018-07-19T09:46:15.783Z,99050.52
2018-07-19T09:48:44.206Z,99045.41
2018-07-19T09:51:12.586Z,99035.14
2018-07-19T09:53:41.067Z,99032.13
2018-07-19T09:56:09.383Z,99039.95
2018-07-19T09:58:37.751Z,99036.09
2018-07-19T10:01:11.424Z,99035.69
2018-07-19T10:03:39.768Z,99035.41
2018-07-19T10:06:08.129Z,99041.34
2018-07-19T10:08:36.421Z,99037.55
2018-07-19T10:11:04.946Z,99034.21
2018-07-19T10:13:33.319Z,99038.91
2018-07-19T10:16:01.812Z,99036.62
2018-07-19T10:18:30.407Z,99023.42
2018-07-19T10:20:59.013Z,99025.39
2018-07-19T10:23:27.474Z,99027.84
2018-07-19T10:25:56.268Z,99021.27
2018-07-19T10:28:24.827Z,99020.89
2018-07-19T10:30:53.174Z,99014.34
2018-07-19T10:33:21.503Z,99017.90
2018-07-19T10:35:49.841Z,99012.54
2018-07-19T10:38:18.282Z,99008.97
2018-07-19T10:40:46.644Z,99018.06
2018-07-19T10:43:14.992Z,99010.86
2018-07-19T10:45:43.347Z,98997.59
2018-07-19T10:48:11.663Z,99004.89
2018-07-19T10:50:39.977Z,99007.95
2018-07-19T10:53:09.331Z,99004.52
2018-07-19T10:55:37.655Z,99003.90
2018-07-19T10:58:05.971Z,99003.90
2018-07-19T11:00:34.309Z,99001.17
2018-07-19T11:03:02.609Z,98993.84
2018-07-19T11:05:30.960Z,99005.44
2018-07-19T11:07:59.234Z,99005.04
2018-07-19T11:10:27.540Z,98999.16
2018-07-19T11:12:55.957Z,98993.33
2018-07-19T11:15:24.323Z,98991.77
2018-07-19T11:17:52.728Z,98985.92
2018-07-19T11:20:21.043Z,98988.45
2018-07-19T11:22:49.381Z,98995.22
2018-07-19T11:25:17.739Z,98994.94
2018-07-19T11:27:46.079Z,98987.17
2018-07-19T11:30:14.451Z,98991.77
2018-07-19T11:32:43.824Z,98986.13
2018-07-19T11:35:12.168Z,98979.57
2018-07-19T11:37:40.507Z,98975.95
2018-07-19T11:40:08.950Z,98983.03
2018-07-19T11:42:37.287Z,98977.17
2018-07-19T11:45:06.198Z,98974.63
2018-07-19T11:47:34.616Z,98976.44
2018-07-19T11:50:02.953Z,98974.55
2018-07-19T11:52:31.339Z,98978.78
2018-07-19T11:54:59.778Z,98970.09
2018-07-19T11:57:28.236Z,98959.12
2018-07-19T11:59:56.754Z,98967.73
2018-07-19T12:02:25.168Z,98953.22
2018-07-19T12:04:53.427Z,98952.22
2018-07-19T12:07:21.776Z,98941.55
2018-07-19T12:09:50.045Z,98941.91
2018-07-19T12:12:18.447Z,98949.16
2018-07-19T12:14:46.776Z,98947.89
2018-07-19T12:17:15.261Z,98951.47
2018-07-19T12:19:43.538Z,98942.83
2018-07-19T12:22:11.871Z,98941.65
2018-07-19T12:24:40.238Z,98940.84
2018-07-19T12:27:08.532Z,98942.34
2018-07-19T12:29:36.992Z,98944.63
2018-07-19T12:32:05.375Z,98946.61
2018-07-19T12:34:33.813Z,98935.74
2018-07-19T12:37:02.107Z,98940.41
2018-07-19T12:39:30.517Z,98940.41
2018-07-19T12:41:59.090Z,98945.02
2018-07-19T12:44:27.503Z,98942.81
2018-07-19T12:46:55.824Z,98940.58
2018-07-19T12:49:24.252Z,98939.17
2018-07-19T12:51:52.633Z,98938.31
2018-07-19T12:54:21.072Z,98942.25
2018-07-19T12:56:49.507Z,98937.47
2018-07-19T12:59:17.949Z,98942.53
2018-07-19T13:01:46.340Z,98938.04
2018-07-19T13:04:14.686Z,98937.91
2018-07-19T13:06:43.111Z,98939.73
2018-07-19T13:09:11.455Z,98933.64
2018-07-19T13:11:39.858Z,98932.64
2018-07-19T13:14:08.211Z,98933.98
2018-07-19T13:16:36.522Z,98930.52
2018-07-19T13:19:04.908Z,98935.91
2018-07-19T13:21:33.170Z,98940.05
2018-07-19T13:24:02.419Z,98937.61
2018-07-19T13:26:31.251Z,98928.20
2018-07-19T13:28:59.749Z,98930.92
2018-07-19T13:31:28.034Z,98928.30
2018-07-19T13:33:56.477Z,98924.22
2018-07-19T13:36:24.809Z,98916.02
2018-07-19T13:38:53.289Z,98915.52
2018-07-19T13:41:21.996Z,98919.88
2018-07-19T13:43:50.401Z,98913.48
2018-07-19T13:46:18.847Z,98909.02
2018-07-19T13:48:47.212Z,98898.94
2018-07-19T13:51:15.601Z,98905.88
2018-07-19T13:54:16.116Z,98908.92
2018-07-19T13:57:00.439Z,98902.77
2018-07-19T13:59:28.742Z,98916.24
2018-07-19T14:01:58.272Z,98906.55
2018-07-19T14:04:26.763Z,98895.94
2018-07-19T14:06:55.342Z,98893.41
2018-07-19T14:09:23.766Z,98889.24
2018-07-19T14:11:52.124Z,98884.47
2018-07-19T14:14:20.486Z,98882.47
2018-07-19T14:16:48.897Z,98890.59
2018-07-19T14:19:17.343Z,98886.13
2018-07-19T14:21:45.699Z,98892.42
2018-07-19T14:24:14.126Z,98894.47
2018-07-19T14:26:42.508Z,98889.63
2018-07-19T14:29:10.877Z,98886.84
2018-07-19T14:31:39.190Z,98885.43
2018-07-19T14:34:07.518Z,98881.25
2018-07-19T14:36:35.835Z,98896.83
2018-07-19T14:39:06.638Z,98876.40
2018-07-19T14:41:34.956Z,98882.42
2018-07-19T14:44:03.391Z,98883.22
2018-07-19T14:46:32.139Z,98883.99
2018-07-19T14:49:00.483Z,98878.70
2018-07-19T14:51:29.228Z,98876.66
2018-07-19T14:53:57.756Z,98874.19
2018-07-19T14:56:26.039Z,98873.13
2018-07-19T14:58:54.709Z,98871.03
2018-07-19T15:01:23.545Z,98867.91
2018-07-19T15:03:52.305Z,98867.23
2018-07-19T15:06:21.200Z,98867.75
2018-07-19T15:08:49.618Z,98859.80
2018-07-19T15:11:19.441Z,98857.00
2018-07-19T15:13:48.067Z,98855.89
2018-07-19T15:16:17.061Z,98861.47
2018-07-19T15:18:45.474Z,98855.68
2018-07-19T15:21:13.843Z,98859.36
2018-07-19T15:23:42.450Z,98848.78
2018-07-19T15:26:10.925Z,98855.05
2018-07-19T15:28:39.263Z,98851.13
2018-07-19T15:31:07.627Z,98847.27
2018-07-19T15:33:36.007Z,98845.92
2018-07-19T15:36:04.427Z,98841.80
2018-07-19T15:38:32.839Z,98844.30
2018-07-19T15:41:01.524Z,98844.79
2018-07-19T15:43:29.864Z,98840.52
2018-07-19T15:45:58.263Z,98845.92
2018-07-19T15:48:26.530Z,98844.29
2018-07-19T15:50:54.875Z,98847.43
2018-07-19T15:53:23.221Z,98842.46
2018-07-19T15:55:51.591Z,98842.28
2018-07-19T15:58:19.986Z,98844.79
2018-07-19T16:00:48.441Z,98837.03
2018-07-19T16:03:16.876Z,98835.52
2018-07-19T16:05:45.246Z,98840.03
2018-07-19T16:08:13.517Z,98834.90
2018-07-19T16:10:41.835Z,98833.05
2018-07-19T16:13:10.279Z,98831.68
2018-07-19T16:15:38.642Z,98822.64
2018-07-19T16:18:07.529Z,98826.06
2018-07-19T16:20:36.360Z,98822.73
2018-07-19T16:23:06.270Z,98826.69
2018-07-19T16:25:34.930Z,98823.36
2018-07-19T16:28:03.621Z,98824.88
2018-07-19T16:30:33.469Z,98816.33
2018-07-19T16:33:02.140Z,98815.81
2018-07-19T16:35:30.873Z,98818.63
2018-07-19T16:37:59.685Z,98825.77
2018-07-19T16:40:28.095Z,98821.60
2018-07-19T16:42:58.010Z,98818.33
2018-07-19T16:45:26.817Z,98817.91
2018-07-19T16:47:55.626Z,98824.16
2018-07-19T16:50:24.570Z,98817.86
2018-07-19T16:52:53.187Z,98820.45
2018-07-19T16:55:21.902Z,98818.32
2018-07-19T16:57:50.467Z,98817.95
2018-07-19T17:00:19.447Z,98815.73
2018-07-19T17:02:48.113Z,98812.02
2018-07-19T17:05:16.591Z,98812.43
2018-07-19T17:07:44.900Z,98809.70
2018-07-19T17:10:13.237Z,98810.02
2018-07-19T17:12:41.775Z,98807.00
2018-07-19T17:15:10.124Z,98807.20
2018-07-19T17:17:38.445Z,98811.12
2018-07-19T17:20:06.936Z,98816.78
2018-07-19T17:22:35.487Z,98812.83
2018-07-19T17:25:03.839Z,98815.09
2018-07-19T17:27:32.353Z,98804.52
2018-07-19T17:30:00.854Z,98805.83
2018-07-19T17:32:29.239Z,98802.70
2018-07-19T17:34:57.859Z,98808.36
2018-07-19T17:37:26.176Z,98805.30
2018-07-19T17:39:54.979Z,98798.25
2018-07-19T17:42:23.549Z,98806.47
2018-07-19T17:44:52.481Z,98806.27
2018-07-19T17:47:20.840Z,98808.30
2018-07-19T17:49:49.145Z,98805.86
2018-07-19T17:52:17.494Z,98808.41
2018-07-19T17:54:46.582Z,98816.08
2018-07-19T17:57:15.023Z,98805.50
2018-07-19T17:59:43.518Z,98810.02
2018-07-19T18:02:12.246Z,98817.80
2018-07-19T18:04:40.685Z,98806.87
2018-07-19T18:07:09.274Z,98803.83
2018-07-19T18:09:37.691Z,98802.02
2018-07-19T18:12:06.209Z,98807.08
2018-07-19T18:14:34.886Z,98801.89
2018-07-19T18:17:03.296Z,98791.91
2018-07-19T18:19:31.794Z,98798.81
2018-07-19T18:22:00.185Z,98805.80
2018-07-19T18:24:28.515Z,98804.14
2018-07-19T18:26:57.000Z,98814.75
2018-07-19T18:29:25.506Z,98812.32
2018-07-19T18:31:54.888Z,98813.63
2018-07-19T18:34:23.172Z,98811.41
2018-07-19T18:36:51.539Z,98813.31
2018-07-19T18:39:19.982Z,98809.49
2018-07-19T18:41:48.427Z,98813.73
2018-07-19T18:44:16.744Z,98811.86
2018-07-19T18:46:45.103Z,98816.69
2018-07-19T18:49:13.562Z,98811.50
2018-07-19T18:51:42.021Z,98818.45
2018-07-19T18:54:11.943Z,98814.93
2018-07-19T18:56:41.144Z,98815.02
2018-07-19T18:59:10.023Z,98820.39
2018-07-19T19:01:38.416Z,98819.05
2018-07-19T19:04:06.725Z,98824.91
2018-07-19T19:06:36.216Z,98823.17
2018-07-19T19:09:07.162Z,98823.58
2018-07-19T19:11:36.026Z,98827.02
2018-07-19T19:14:04.570Z,98829.84
2018-07-19T19:16:32.891Z,98829.93
2018-07-19T19:19:01.620Z,98828.77
2018-07-19T19:21:30.021Z,98826.87
2018-07-19T19:23:58.419Z,98826.89
2018-07-19T19:26:27.205Z,98834.07
2018-07-19T19:29:11.488Z,98838.84
2018-07-19T19:31:47.818Z,98841.55
2018-07-19T19:34:16.391Z,98840.91
2018-07-19T19:36:47.405Z,98843.45
2018-07-19T19:39:16.010Z,98846.09
2018-07-19T19:41:44.531Z,98852.80
2018-07-19T19:44:13.480Z,98853.47
2018-07-19T19:46:42.337Z,98851.14
2018-07-19T19:49:11.095Z,98853.21
2018-07-19T19:51:39.656Z,98857.67
2018-07-19T19:54:08.528Z,98854.59
2018-07-19T19:56:37.438Z,98853.26
2018-07-19T19:59:06.326Z,98852.52
2018-07-19T20:01:35.851Z,98850.33
2018-07-19T20:04:04.401Z,98855.25
2018-07-19T20:06:32.942Z,98852.69
2018-07-19T20:09:01.527Z,98860.94
2018-07-19T20:11:30.036Z,98854.61
2018-07-19T20:13:59.656Z,98854.86
2018-07-19T20:16:28.024Z,98862.30
2018-07-19T20:18:56.519Z,98862.98
2018-07-19T20:21:25.187Z,98864.37
2018-07-19T20:23:53.741Z,98869.26
2018-07-19T20:26:22.222Z,98871.79
2018-07-19T20:28:50.594Z,98872.73
2018-07-19T20:31:18.899Z,98868.69
2018-07-19T20:33:47.225Z,98869.02
2018-07-19T20:36:15.576Z,98871.46
2018-07-19T20:38:43.914Z,98869.63
2018-07-19T20:41:12.255Z,98878.00
2018-07-19T20:43:40.680Z,98873.97
2018-07-19T20:46:09.142Z,98876.45
2018-07-19T20:48:37.509Z,98876.33
2018-07-19T20:51:06.031Z,98873.87
2018-07-19T20:53:34.412Z,98873.98
2018-07-19T20:56:02.722Z,98869.59
2018-07-19T20:58:31.191Z,98879.39
2018-07-19T21:00:59.492Z,98870.64
2018-07-19T21:03:27.835Z,98876.80
2018-07-19T21:05:56.139Z,98872.69
2018-07-19T21:08:24.533Z,98871.69
2018-07-19T21:10:52.826Z,98866.47
2018-07-19T21:13:21.184Z,98865.87
2018-07-19T21:15:49.459Z,98871.08
2018-07-19T21:18:18.096Z,98878.70
2018-07-19T21:20:46.411Z,98880.73
2018-07-19T21:23:14.723Z,98878.55
2018-07-19T21:25:43.171Z,98873.37
2018-07-19T21:28:11.474Z,98877.47
2018-07-19T21:30:39.816Z,98875.79
2018-07-19T21:33:08.194Z,98882.98
2018-07-19T21:35:36.516Z,98882.42
2018-07-19T21:38:04.845Z,98884.77
2018-07-19T21:40:33.146Z,98877.20
2018-07-19T21:43:01.468Z,98879.70
2018-07-19T21:45:29.765Z,98877.41
2018-07-19T21:47:58.160Z,98881.37
2018-07-19T21:50:27.190Z,98879.44
2018-07-19T21:52:55.506Z,98879.11
2018-07-19T21:55:23.818Z,98879.83
2018-07-19T21:57:52.378Z,98879.61
2018-07-19T22:00:20.693Z,98882.02
2018-07-19T22:02:49.016Z,98882.81
2018-07-19T22:05:17.359Z,98885.09
2018-07-19T22:07:45.618Z,98886.12
2018-07-19T22:10:15.790Z,98882.73
2018-07-19T22:12:44.167Z,98889.16
2018-07-19T22:15:12.532Z,98886.77
2018-07-19T22:17:40.829Z,98891.30
2018-07-19T22:20:09.201Z,98892.05
2018-07-19T22:22:37.539Z,98894.05
2018-07-19T22:25:05.905Z,98891.17
2018-07-19T22:27:34.218Z,98890.69
2018-07-19T22:30:02.536Z,98891.55
2018-07-19T22:32:30.823Z,98890.20
2018-07-19T22:34:59.139Z,98880.61
2018-07-19T22:37:27.623Z,98881.65
2018-07-19T22:39:55.962Z,98888.05
2018-07-19T22:42:24.324Z,98887.67
2018-07-19T22:44:52.638Z,98886.00
2018-07-19T22:47:20.955Z,98887.02
2018-07-19T22:49:49.417Z,98883.16
2018-07-19T22:52:17.716Z,98885.71
2018-07-19T22:54:46.047Z,98886.21
2018-07-19T22:57:14.365Z,98881.14
2018-07-19T22:59:42.677Z,98880.64
2018-07-19T23:02:11.000Z,98879.45
2018-07-19T23:04:39.300Z,98882.14
2018-07-19T23:07:07.747Z,98878.44
2018-07-19T23:09:36.062Z,98879.65
2018-07-19T23:12:04.391Z,98882.01
2018-07-19T23:14:32.700Z,98877.46
2018-07-19T23:17:01.017Z,98880.84
2018-07-19T23:19:29.494Z,98872.95
2018-07-19T23:21:57.808Z,98877.95
2018-07-19T23:24:26.173Z,98873.94
2018-07-19T23:26:54.552Z,98872.59
2018-07-19T23:29:22.919Z,98873.77
2018-07-19T23:31:51.235Z,98873.25
2018-07-19T23:34:19.571Z,98872.38
2018-07-19T23:36:52.077Z,98873.59
2018-07-19T23:39:24.472Z,98877.28
2018-07-19T23:41:57.141Z,98868.45
2018-07-19T23:44:30.616Z,98867.84
2018-07-19T23:47:02.700Z,98862.83
2018-07-19T23:49:31.070Z,98872.05
2018-07-19T23:51:59.346Z,98864.52
2018-07-19T23:54:27.755Z,98872.55
2018-07-19T23:56:56.148Z,98863.70
2018-07-19T23:59:24.560Z,98868.19
